Terminal Aerodrome Forecast
Issued by NWS Houston/Galveston, TX

Home | Current Version | Previous Version | Text Only | Print | Product List | Glossary On
Versions: 1 2 3 4 5 6 7 8 9 10 11 12 13 14 15 16 17 18 19 20 21 22 23 24 25 26 27 28 29 30 31 32 33 34 35 36 37 38 39 40
000
FTUS44 KHGX 270521
TAFCLL
TAF
KCLL 270521Z 2706/2806 17010KT P6SM FEW017 BKN035
      TEMPO 2706/2709 BKN015 OVC030
     FM270900 18010KT P6SM OVC015
     FM271500 19013G19KT P6SM SCT015 BKN025
     FM271700 18014G21KT P6SM BKN035
     FM280400 18011KT P6SM BKN015 OVC030=

USA.gov is the U.S. government's official web portal to all federal, state and local government web resources and services.